Chiang Rai, Thailand

6:40 PM ICT on August 30, 2015 (GMT +0700)
Chiang Rai International | | Change Station
CLOSE
Current Station
Airport
Location: Chiang Rai International,
Elevation: 1280 ft
Nearby Weather Stations

Elev 1280 ft 19.95 °N, 99.88 °E | Updated 40 minutes ago

Light Rain
Light Rain
81 °F
Feels Like 87 °F
N
4
Wind Variable Wind from North

Today
High -- | Low -- °F
--% Chance of Precip.
Yesterday
High -- | Low -- °F
Precip. -- in
6:04 AM 6:38 PM
Full, 99% visible
Pressure 29.71 in
Visibility 6.2 miles
Clouds Few 3000 ft
Scattered Clouds 5000 ft
Overcast 10000 ft
Heat Index 87 °F
Dew Point 77 °F
Humidity 89%
Rainfall 0.00 in
Snow Depth Not available.
UV 0 out of 12
Pollen Not available.
Air Quality Not available.
Flu Activity Not available.
METAR VTCT 301100Z 36003KT 9999 -RA FEW030 SCT050 OVC100 27/25 Q1006 A2971
Pressure 29.71 in
Visibility 6.2 miles
Clouds Few 3000 ft
Scattered Clouds 5000 ft
Overcast 10000 ft
Heat Index 87 °F
Dew Point 77 °F
Humidity 89%
Rainfall 0.00 in
Snow Depth Not available.
UV 0 out of 12
Pollen Not available.
Air Quality Not available.
Flu Activity Not available.
METAR VTCT 301100Z 36003KT 9999 -RA FEW030 SCT050 OVC100 27/25 Q1006 A2971

10-Day Weather Forecast

×

Almanac

Astronomy

Aug. 30, 2015 Rise Set
Actual Time
Civil Twilight
Nautical Twilight
Astronomical Twilight
Moon
Length of Visible Light
Length of Day
Tomorrow will be .
, % of the Moon is Illuminated

Today's Extremes

Country Highs Country Lows

Community

WunderPhotos

Upload Photos

1,850,930 photos uploaded!

WunderBlogs® & News

Nearby

Air Quality

  Air Quality AQ Index Pollutant
Not available.

Snow Depth

Station Depth Elevation

Earthquake Activity

City Distance Mag. Time & Date
Minimum magnitude displayed is 2.5.

Coastal Water Temperatures

Place Temperature

Stations

Nearby Weather Stations

Station Location Temp. Windchill Dew Point Humidity Wind Precip. Elev Updated Type